createdAt,value
2023-02-28T00:00:40.498Z,0.23
2023-02-28T00:01:40.861Z,0.25
2023-02-28T00:02:40.524Z,0.27
2023-02-28T00:03:40.926Z,0.22
2023-02-28T00:04:40.631Z,0.19
2023-02-28T00:05:40.556Z,0.21
2023-02-28T00:06:40.537Z,0.19
2023-02-28T00:07:40.586Z,0.13
2023-02-28T00:08:45.278Z,0.09
2023-02-28T00:09:40.532Z,0.16
2023-02-28T00:10:40.608Z,0.21
2023-02-28T00:11:40.582Z,0.22
2023-02-28T00:12:40.504Z,0.21
2023-02-28T00:13:40.933Z,0.21
2023-02-28T00:14:40.625Z,0.22
2023-02-28T00:15:40.534Z,0.21
2023-02-28T00:16:40.898Z,0.17
2023-02-28T00:17:40.565Z,0.1
2023-02-28T00:18:40.900Z,0.08
2023-02-28T00:19:42.865Z,0.12
2023-02-28T00:20:40.604Z,0.14
2023-02-28T00:21:40.543Z,0.13
2023-02-28T00:22:40.519Z,0.1
2023-02-28T00:23:40.854Z,0.06
2023-02-28T00:24:40.536Z,0.02
2023-02-28T00:25:40.534Z,0
2023-02-28T00:26:40.595Z,0.01
2023-02-28T00:27:40.637Z,-0.01
2023-02-28T00:28:40.859Z,-0.06
2023-02-28T00:29:40.525Z,-0.01
2023-02-28T00:30:42.983Z,0.03
2023-02-28T00:31:40.852Z,0.03
2023-02-28T00:32:40.514Z,0.05
2023-02-28T00:33:40.850Z,0.06
2023-02-28T00:34:40.617Z,0.01
2023-02-28T00:35:40.705Z,-0.02
2023-02-28T00:36:40.665Z,-0.08
2023-02-28T00:37:40.606Z,-0.06
2023-02-28T00:38:41.037Z,-0.06
2023-02-28T00:39:40.590Z,-0.07
2023-02-28T00:40:40.616Z,-0.07
2023-02-28T00:41:42.885Z,-0.09
2023-02-28T00:42:40.615Z,-0.12
2023-02-28T00:43:40.851Z,-0.11
2023-02-28T00:44:40.581Z,-0.1
2023-02-28T00:45:40.493Z,-0.11
2023-02-28T00:46:40.847Z,-0.12
2023-02-28T00:47:40.651Z,-0.15
2023-02-28T00:48:40.856Z,-0.19
2023-02-28T00:49:40.560Z,-0.21
2023-02-28T00:50:40.525Z,-0.2
2023-02-28T00:51:40.580Z,-0.25
2023-02-28T00:52:42.862Z,-0.22
2023-02-28T00:53:40.930Z,-0.21
2023-02-28T00:54:41.657Z,-0.24
2023-02-28T00:55:40.640Z,-0.22
2023-02-28T00:56:40.597Z,-0.21
2023-02-28T00:57:40.583Z,-0.18
2023-02-28T00:58:40.852Z,-0.21
2023-02-28T00:59:40.498Z,-0.23
2023-02-28T01:00:40.524Z,-0.19
2023-02-28T01:01:40.933Z,-0.18
2023-02-28T01:02:40.608Z,-0.18
2023-02-28T01:03:45.399Z,-0.2
2023-02-28T01:04:40.636Z,-0.19
2023-02-28T01:05:40.606Z,-0.2
2023-02-28T01:06:40.564Z,-0.23
2023-02-28T01:07:40.613Z,-0.24
2023-02-28T01:08:40.851Z,-0.25
2023-02-28T01:09:40.533Z,-0.24
2023-02-28T01:10:40.612Z,-0.26
2023-02-28T01:11:40.594Z,-0.29
2023-02-28T01:12:40.534Z,-0.32
2023-02-28T01:13:40.932Z,-0.36
2023-02-28T01:14:42.954Z,-0.38
2023-02-28T01:15:40.640Z,-0.4
2023-02-28T01:16:40.851Z,-0.39
2023-02-28T01:17:40.574Z,-0.39
2023-02-28T01:18:40.859Z,-0.36
2023-02-28T01:19:40.518Z,-0.34
2023-02-28T01:20:40.770Z,-0.36
2023-02-28T01:21:40.580Z,-0.38
2023-02-28T01:22:40.634Z,-0.38
2023-02-28T01:23:40.850Z,-0.39
2023-02-28T01:24:40.609Z,-0.37
2023-02-28T01:25:43.047Z,-0.35
2023-02-28T01:26:40.551Z,-0.33
2023-02-28T01:27:40.624Z,-0.33
2023-02-28T01:28:40.863Z,-0.33
2023-02-28T01:29:40.571Z,-0.33
2023-02-28T01:30:40.630Z,-0.34
2023-02-28T01:31:40.909Z,-0.38
2023-02-28T01:32:40.570Z,-0.37
2023-02-28T01:33:40.910Z,-0.35
2023-02-28T01:34:40.489Z,-0.35
2023-02-28T01:35:40.587Z,-0.36
2023-02-28T01:36:42.942Z,-0.39
2023-02-28T01:37:40.581Z,-0.41
2023-02-28T01:38:40.847Z,-0.38
2023-02-28T01:39:40.529Z,-0.39
2023-02-28T01:40:40.593Z,-0.37
2023-02-28T01:41:40.602Z,-0.41
2023-02-28T01:42:40.618Z,-0.44
2023-02-28T01:43:40.852Z,-0.48
2023-02-28T01:44:40.502Z,-0.55
2023-02-28T01:45:40.616Z,-0.55
2023-02-28T01:46:40.951Z,-0.52
2023-02-28T01:47:42.947Z,-0.57
2023-02-28T01:48:40.850Z,-0.63
2023-02-28T01:49:40.517Z,-0.67
2023-02-28T01:50:40.614Z,-0.68
2023-02-28T01:51:40.598Z,-0.69
2023-02-28T01:52:40.595Z,-0.68
2023-02-28T01:53:40.875Z,-0.67
2023-02-28T01:54:40.622Z,-0.68
2023-02-28T01:55:40.623Z,-0.67
2023-02-28T01:56:40.495Z,-0.64
2023-02-28T01:57:40.512Z,-0.64
2023-02-28T01:58:45.364Z,-0.65
2023-02-28T01:59:40.597Z,-0.63
2023-02-28T02:00:40.614Z,-0.63
2023-02-28T02:01:40.876Z,-0.63
2023-02-28T02:02:40.523Z,-0.6
2023-02-28T02:03:40.932Z,-0.58
2023-02-28T02:04:40.617Z,-0.59
2023-02-28T02:05:40.587Z,-0.58
2023-02-28T02:06:40.624Z,-0.55
2023-02-28T02:07:40.581Z,-0.55
2023-02-28T02:08:40.847Z,-0.6
2023-02-28T02:09:42.873Z,-0.61
2023-02-28T02:10:40.546Z,-0.63
2023-02-28T02:11:40.626Z,-0.66
2023-02-28T02:12:40.608Z,-0.69
2023-02-28T02:13:40.841Z,-0.75
2023-02-28T02:14:40.503Z,-0.75
2023-02-28T02:15:40.679Z,-0.72
2023-02-28T02:16:40.854Z,-0.72
2023-02-28T02:17:40.564Z,-0.71
2023-02-28T02:18:40.841Z,-0.71
2023-02-28T02:19:40.639Z,-0.66
2023-02-28T02:20:42.952Z,-0.69
2023-02-28T02:21:40.609Z,-0.73
2023-02-28T02:22:40.501Z,-0.78
2023-02-28T02:23:40.857Z,-0.83
2023-02-28T02:24:40.611Z,-0.79
2023-02-28T02:25:40.608Z,-0.84
2023-02-28T02:26:40.624Z,-0.88
2023-02-28T02:27:40.588Z,-0.93
2023-02-28T02:28:40.841Z,-0.95
2023-02-28T02:29:40.604Z,-0.97
2023-02-28T02:30:40.590Z,-0.99
2023-02-28T02:31:45.460Z,-1.02
2023-02-28T02:32:40.605Z,-0.95
2023-02-28T02:33:40.848Z,-0.88
2023-02-28T02:34:40.490Z,-0.85
2023-02-28T02:35:40.574Z,-0.83
2023-02-28T02:36:40.514Z,-0.81
2023-02-28T02:37:40.514Z,-0.83
2023-02-28T02:38:40.835Z,-0.89
2023-02-28T02:39:40.516Z,-0.93
2023-02-28T02:40:40.607Z,-0.94
2023-02-28T02:41:40.482Z,-0.93
2023-02-28T02:42:42.973Z,-0.97
2023-02-28T02:43:40.987Z,-1
2023-02-28T02:44:40.573Z,-0.96
2023-02-28T02:45:40.583Z,-0.97
2023-02-28T02:46:40.862Z,-0.96
2023-02-28T02:47:40.505Z,-0.98
2023-02-28T02:48:40.851Z,-0.99
2023-02-28T02:49:40.553Z,-0.99
2023-02-28T02:50:40.511Z,-1.03
2023-02-28T02:51:40.554Z,-1.06
2023-02-28T02:52:40.543Z,-1.09
2023-02-28T02:53:45.381Z,-1.1
2023-02-28T02:54:40.596Z,-1.09
2023-02-28T02:55:40.508Z,-1.08
2023-02-28T02:56:40.644Z,-1.08
2023-02-28T02:57:40.612Z,-1.06
2023-02-28T02:58:40.852Z,-1.05
2023-02-28T02:59:40.505Z,-1.12
2023-02-28T03:00:40.737Z,-1.15
2023-02-28T03:01:40.585Z,-1.2
2023-02-28T03:02:40.607Z,-1.21
2023-02-28T03:03:40.857Z,-1.26
2023-02-28T03:04:42.863Z,-1.24
2023-02-28T03:05:40.615Z,-1.2
2023-02-28T03:06:40.508Z,-1.18
2023-02-28T03:07:40.592Z,-1.22
2023-02-28T03:08:40.848Z,-1.26
2023-02-28T03:09:40.531Z,-1.29
2023-02-28T03:10:40.624Z,-1.23
2023-02-28T03:11:40.579Z,-1.25
2023-02-28T03:12:40.516Z,-1.27
2023-02-28T03:13:40.843Z,-1.29
2023-02-28T03:14:40.523Z,-1.27
2023-02-28T03:15:42.894Z,-1.3
2023-02-28T03:16:40.848Z,-1.32
2023-02-28T03:17:40.588Z,-1.37
2023-02-28T03:18:40.856Z,-1.29
2023-02-28T03:19:40.610Z,-1.26
2023-02-28T03:20:40.609Z,-1.29
2023-02-28T03:21:40.498Z,-1.33
2023-02-28T03:22:40.587Z,-1.37
2023-02-28T03:23:40.846Z,-1.39
2023-02-28T03:24:40.530Z,-1.39
2023-02-28T03:25:40.601Z,-1.31
2023-02-28T03:26:42.931Z,-1.22
2023-02-28T03:27:40.558Z,-1.21
2023-02-28T03:28:40.847Z,-1.22
2023-02-28T03:29:40.502Z,-1.19
2023-02-28T03:30:40.604Z,-1.23
2023-02-28T03:31:40.916Z,-1.3
2023-02-28T03:32:40.640Z,-1.32
2023-02-28T03:33:40.854Z,-1.36
2023-02-28T03:34:40.599Z,-1.39
2023-02-28T03:35:40.658Z,-1.38
2023-02-28T03:36:40.567Z,-1.37
2023-02-28T03:37:42.945Z,-1.36
2023-02-28T03:38:40.857Z,-1.28
2023-02-28T03:39:40.630Z,-1.28
2023-02-28T03:40:40.621Z,-1.31
2023-02-28T03:41:40.596Z,-1.25
2023-02-28T03:42:40.514Z,-1.25
2023-02-28T03:43:40.855Z,-1.23
2023-02-28T03:44:40.644Z,-1.2
2023-02-28T03:45:40.624Z,-1.23
2023-02-28T03:46:40.887Z,-1.21
2023-02-28T03:47:40.530Z,-1.19
2023-02-28T03:48:45.429Z,-1.21
2023-02-28T03:49:40.550Z,-1.21
2023-02-28T03:50:40.594Z,-1.24
2023-02-28T03:51:40.897Z,-1.18
2023-02-28T03:52:40.501Z,-1.15
2023-02-28T03:53:40.864Z,-1.11
2023-02-28T03:54:40.643Z,-1.11
2023-02-28T03:55:40.611Z,-1.17
2023-02-28T03:56:40.600Z,-1.22
2023-02-28T03:57:40.618Z,-1.27
2023-02-28T03:58:40.865Z,-1.3
2023-02-28T03:59:42.970Z,-1.33
2023-02-28T04:00:40.590Z,-1.28
2023-02-28T04:01:40.925Z,-1.24
2023-02-28T04:02:40.631Z,-1.24
2023-02-28T04:03:40.860Z,-1.28
2023-02-28T04:04:40.514Z,-1.23
2023-02-28T04:05:40.554Z,-1.22
2023-02-28T04:06:40.595Z,-1.25
2023-02-28T04:07:40.524Z,-1.31
2023-02-28T04:08:40.870Z,-1.35
2023-02-28T04:09:40.525Z,-1.4
2023-02-28T04:10:42.872Z,-1.4
2023-02-28T04:11:40.596Z,-1.38
2023-02-28T04:12:40.521Z,-1.39
2023-02-28T04:13:40.849Z,-1.42
2023-02-28T04:14:40.575Z,-1.43
2023-02-28T04:15:40.650Z,-1.46
2023-02-28T04:16:40.963Z,-1.5
2023-02-28T04:17:40.484Z,-1.5
2023-02-28T04:18:40.884Z,-1.5
2023-02-28T04:19:40.578Z,-1.49
2023-02-28T04:20:40.613Z,-1.51
2023-02-28T04:21:42.901Z,-1.5
2023-02-28T04:22:40.634Z,-1.49
2023-02-28T04:23:40.857Z,-1.49
2023-02-28T04:24:40.508Z,-1.46
2023-02-28T04:25:40.551Z,-1.45
2023-02-28T04:26:40.522Z,-1.43
2023-02-28T04:27:40.497Z,-1.43
2023-02-28T04:28:40.857Z,-1.43
2023-02-28T04:29:40.608Z,-1.4
2023-02-28T04:30:40.608Z,-1.4
2023-02-28T04:31:40.965Z,-1.36
2023-02-28T04:32:42.985Z,-1.32
2023-02-28T04:33:40.862Z,-1.29
2023-02-28T04:34:40.592Z,-1.28
2023-02-28T04:35:40.643Z,-1.26
2023-02-28T04:36:40.632Z,-1.24
2023-02-28T04:37:40.595Z,-1.2
2023-02-28T04:38:40.952Z,-1.14
2023-02-28T04:39:40.559Z,-1.12
2023-02-28T04:40:40.646Z,-1.08
2023-02-28T04:41:40.577Z,-1.05
2023-02-28T04:42:40.586Z,-1.03
2023-02-28T04:43:45.394Z,-1
2023-02-28T04:44:40.500Z,-0.98
2023-02-28T04:45:40.626Z,-0.91
2023-02-28T04:46:40.849Z,-0.84
2023-02-28T04:47:40.714Z,-0.81
2023-02-28T04:48:40.841Z,-0.78
2023-02-28T04:49:40.590Z,-0.75
2023-02-28T04:50:40.600Z,-0.75
2023-02-28T04:51:40.593Z,-0.74
2023-02-28T04:52:40.533Z,-0.72
2023-02-28T04:53:40.894Z,-0.72
2023-02-28T04:54:42.931Z,-0.73
2023-02-28T04:55:40.609Z,-0.74
2023-02-28T04:56:40.577Z,-0.74
2023-02-28T04:57:40.478Z,-0.72
2023-02-28T04:58:40.849Z,-0.72
2023-02-28T04:59:40.487Z,-0.72
2023-02-28T05:00:40.594Z,-0.7
2023-02-28T05:01:40.521Z,-0.71
2023-02-28T05:02:40.581Z,-0.71
2023-02-28T05:03:40.874Z,-0.7
2023-02-28T05:04:40.617Z,-0.69
2023-02-28T05:05:42.924Z,-0.67
2023-02-28T05:06:40.619Z,-0.67
2023-02-28T05:07:40.620Z,-0.67
2023-02-28T05:08:40.839Z,-0.68
2023-02-28T05:09:40.528Z,-0.67
2023-02-28T05:10:40.633Z,-0.7
2023-02-28T05:11:40.660Z,-0.72
2023-02-28T05:12:40.618Z,-0.76
2023-02-28T05:13:40.837Z,-0.76
2023-02-28T05:14:40.623Z,-0.8
2023-02-28T05:15:40.635Z,-0.82
2023-02-28T05:16:45.701Z,-0.86
2023-02-28T05:17:40.502Z,-0.88
2023-02-28T05:18:40.881Z,-0.88
2023-02-28T05:19:40.573Z,-0.89
2023-02-28T05:20:40.855Z,-0.92
2023-02-28T05:21:40.556Z,-0.94
2023-02-28T05:22:40.588Z,-0.97
2023-02-28T05:23:40.584Z,-0.98
2023-02-28T05:24:40.560Z,-1.03
2023-02-28T05:25:40.936Z,-1.04
2023-02-28T05:26:40.641Z,-1.05
2023-02-28T05:27:42.915Z,-1.07
2023-02-28T05:28:40.556Z,-1.05
2023-02-28T05:29:40.552Z,-1.05
2023-02-28T05:30:40.853Z,-1.09
2023-02-28T05:31:40.648Z,-1.07
2023-02-28T05:32:40.887Z,-1.1
2023-02-28T05:33:40.601Z,-1.14
2023-02-28T05:34:40.597Z,-1.16
2023-02-28T05:35:40.869Z,-1.19
2023-02-28T05:36:40.602Z,-1.18
2023-02-28T05:37:40.623Z,-1.2
2023-02-28T05:38:42.847Z,-1.25
2023-02-28T05:39:40.585Z,-1.27
2023-02-28T05:40:40.852Z,-1.25
2023-02-28T05:41:40.583Z,-1.3
2023-02-28T05:42:40.588Z,-1.35
2023-02-28T05:43:40.923Z,-1.36
2023-02-28T05:44:40.486Z,-1.31
2023-02-28T05:45:40.910Z,-1.28
2023-02-28T05:46:40.511Z,-1.27
2023-02-28T05:47:40.601Z,-1.3
2023-02-28T05:48:40.547Z,-1.33
2023-02-28T05:49:42.972Z,-1.3
2023-02-28T05:50:40.853Z,-1.3
2023-02-28T05:51:40.690Z,-1.32
2023-02-28T05:52:40.492Z,-1.29
2023-02-28T05:53:40.645Z,-1.29
2023-02-28T05:54:40.570Z,-1.31
2023-02-28T05:55:40.871Z,-1.33
2023-02-28T05:56:40.578Z,-1.32
2023-02-28T05:57:40.485Z,-1.32
2023-02-28T05:58:40.857Z,-1.3
2023-02-28T05:59:40.682Z,-1.33
2023-02-28T06:00:45.375Z,-1.31
2023-02-28T06:01:40.502Z,-1.29
2023-02-28T06:02:40.616Z,-1.32
2023-02-28T06:03:40.638Z,-1.38
2023-02-28T06:04:40.623Z,-1.4
2023-02-28T06:05:40.896Z,-1.41
2023-02-28T06:06:40.602Z,-1.4
2023-02-28T06:07:40.594Z,-1.38
2023-02-28T06:08:40.601Z,-1.41
2023-02-28T06:09:40.459Z,-1.42
2023-02-28T06:10:40.871Z,-1.39
2023-02-28T06:11:42.880Z,-1.39
2023-02-28T06:12:40.607Z,-1.35
2023-02-28T06:13:40.937Z,-1.34
2023-02-28T06:14:40.599Z,-1.38
2023-02-28T06:15:40.863Z,-1.41
2023-02-28T06:16:40.692Z,-1.35
2023-02-28T06:17:40.639Z,-1.32
2023-02-28T06:18:40.637Z,-1.3
2023-02-28T06:19:40.599Z,-1.31
2023-02-28T06:20:40.865Z,-1.31
2023-02-28T06:21:40.517Z,-1.3
2023-02-28T06:22:42.957Z,-1.32
2023-02-28T06:23:40.587Z,-1.37
2023-02-28T06:24:40.641Z,-1.37
2023-02-28T06:25:40.543Z,-1.33
2023-02-28T06:26:40.537Z,-1.31
2023-02-28T06:27:40.618Z,-1.3
2023-02-28T06:28:40.570Z,-1.29
2023-02-28T06:29:40.573Z,-1.28
2023-02-28T06:30:40.861Z,-1.32
2023-02-28T06:31:40.680Z,-1.34
2023-02-28T06:32:40.622Z,-1.35
2023-02-28T06:33:42.964Z,-1.32
2023-02-28T06:34:40.619Z,-1.32
2023-02-28T06:35:40.903Z,-1.3
2023-02-28T06:36:40.574Z,-1.26
2023-02-28T06:37:41.865Z,-1.25
2023-02-28T06:38:40.610Z,-1.22
2023-02-28T06:39:40.622Z,-1.21
2023-02-28T06:40:40.866Z,-1.2
2023-02-28T06:41:53.686Z,-1.19
2023-02-28T06:42:40.501Z,-1.19
2023-02-28T06:43:40.871Z,-1.13
2023-02-28T06:44:42.948Z,-1.13
2023-02-28T06:45:40.867Z,-1.14
2023-02-28T06:46:40.490Z,-1.12
2023-02-28T06:47:40.639Z,-1.1
2023-02-28T06:48:40.514Z,-1.06
2023-02-28T06:49:40.582Z,-1.02
2023-02-28T06:50:40.869Z,-0.99
2023-02-28T06:51:40.569Z,-0.97
2023-02-28T06:52:40.609Z,-0.94
2023-02-28T06:53:40.589Z,-0.88
2023-02-28T06:54:40.605Z,-0.87
2023-02-28T06:55:45.375Z,-0.86
2023-02-28T06:56:40.558Z,-0.86
2023-02-28T06:57:40.655Z,-0.83
2023-02-28T06:58:40.864Z,-0.83
2023-02-28T06:59:40.490Z,-0.76
2023-02-28T07:00:40.860Z,-0.55
2023-02-28T07:01:40.602Z,-0.24
2023-02-28T07:02:40.626Z,-0.08
2023-02-28T07:03:40.519Z,-0.16
2023-02-28T07:04:40.605Z,-0.24
2023-02-28T07:05:40.860Z,-0.3
2023-02-28T07:06:42.851Z,-0.27
2023-02-28T07:07:40.623Z,-0.22
2023-02-28T07:08:40.591Z,-0.14
2023-02-28T07:09:40.527Z,-0.04
2023-02-28T07:10:40.860Z,0.05
2023-02-28T07:11:40.612Z,0.03
2023-02-28T07:12:40.611Z,-0.07
2023-02-28T07:13:40.559Z,-0.15
2023-02-28T07:14:40.623Z,-0.2
2023-02-28T07:15:43.948Z,-0.23
2023-02-28T07:16:40.614Z,-0.24
2023-02-28T07:17:42.935Z,-0.23
2023-02-28T07:18:40.610Z,-0.24
2023-02-28T07:19:40.658Z,-0.24
2023-02-28T07:20:40.866Z,-0.21
2023-02-28T07:21:40.475Z,-0.2
2023-02-28T07:22:40.614Z,-0.19
2023-02-28T07:23:40.532Z,-0.18
2023-02-28T07:24:40.555Z,-0.16
2023-02-28T07:25:40.866Z,-0.12
2023-02-28T07:26:40.619Z,-0.09
2023-02-28T07:27:42.260Z,-0.03
2023-02-28T07:28:45.369Z,0
2023-02-28T07:29:40.561Z,0.03
2023-02-28T07:30:40.867Z,0.05
2023-02-28T07:31:40.642Z,0.07
2023-02-28T07:32:40.619Z,0.1
2023-02-28T07:33:40.605Z,0.12
2023-02-28T07:34:40.585Z,0.17
2023-02-28T07:35:40.909Z,0.25
2023-02-28T07:36:40.645Z,0.31
2023-02-28T07:37:40.590Z,0.35
2023-02-28T07:38:40.596Z,0.38
2023-02-28T07:39:42.862Z,0.44
2023-02-28T07:40:40.879Z,0.46
2023-02-28T07:41:40.620Z,0.5
2023-02-28T07:42:40.557Z,0.54
2023-02-28T07:43:40.925Z,0.56
2023-02-28T07:44:40.610Z,0.61
2023-02-28T07:45:40.899Z,0.64
2023-02-28T07:46:40.543Z,0.67
2023-02-28T07:47:40.528Z,0.71
2023-02-28T07:48:40.582Z,0.73
2023-02-28T07:49:40.626Z,0.76
2023-02-28T07:50:45.387Z,0.8
2023-02-28T07:51:40.533Z,0.84
2023-02-28T07:52:40.539Z,0.84
2023-02-28T07:53:40.572Z,0.87
2023-02-28T07:54:40.514Z,0.92
2023-02-28T07:55:40.875Z,0.96
2023-02-28T07:56:40.600Z,1
2023-02-28T07:57:40.609Z,1.03
2023-02-28T07:58:40.982Z,1.06
2023-02-28T07:59:40.625Z,1.11
2023-02-28T08:00:40.971Z,1.17
2023-02-28T08:01:42.952Z,1.19
2023-02-28T08:02:40.609Z,1.22
2023-02-28T08:03:40.525Z,1.29
2023-02-28T08:04:40.512Z,1.34
2023-02-28T08:05:40.876Z,1.37
2023-02-28T08:06:40.623Z,1.41
2023-02-28T08:07:40.554Z,1.48
2023-02-28T08:08:40.600Z,1.49
2023-02-28T08:09:40.533Z,1.49
2023-02-28T08:10:40.919Z,1.51
2023-02-28T08:11:40.623Z,1.59
2023-02-28T08:12:42.885Z,1.63
2023-02-28T08:13:40.870Z,1.63
2023-02-28T08:14:40.652Z,1.66
2023-02-28T08:15:40.877Z,1.66
2023-02-28T08:16:40.557Z,1.7
2023-02-28T08:17:40.657Z,1.72
2023-02-28T08:18:40.615Z,1.74
2023-02-28T08:19:40.606Z,1.78
2023-02-28T08:20:40.867Z,1.81
2023-02-28T08:21:40.628Z,1.86
2023-02-28T08:22:40.580Z,1.93
2023-02-28T08:23:42.928Z,2.03
2023-02-28T08:24:40.589Z,2.07
2023-02-28T08:25:40.880Z,2.08
2023-02-28T08:26:40.514Z,2.09
2023-02-28T08:27:40.506Z,2.15
2023-02-28T08:28:40.878Z,2.17
2023-02-28T08:29:40.618Z,2.16
2023-02-28T08:30:40.877Z,2.11
2023-02-28T08:31:40.622Z,2.16
2023-02-28T08:32:40.647Z,2.24
2023-02-28T08:33:40.601Z,2.32
2023-02-28T08:34:42.932Z,2.31
2023-02-28T08:35:40.902Z,2.35
2023-02-28T08:36:40.764Z,2.4
2023-02-28T08:37:40.586Z,2.39
2023-02-28T08:38:40.488Z,2.36
2023-02-28T08:39:40.578Z,2.39
2023-02-28T08:40:40.867Z,2.43
2023-02-28T08:41:40.587Z,2.52
2023-02-28T08:42:40.626Z,2.6
2023-02-28T08:43:40.861Z,2.54
2023-02-28T08:44:40.591Z,2.54
2023-02-28T08:45:45.395Z,2.53
2023-02-28T08:46:40.513Z,2.58
2023-02-28T08:47:40.487Z,2.6
2023-02-28T08:48:40.657Z,2.64
2023-02-28T08:49:40.550Z,2.68
2023-02-28T08:50:40.865Z,2.74
2023-02-28T08:51:40.513Z,2.76
2023-02-28T08:52:40.470Z,2.76
2023-02-28T08:53:40.635Z,2.74
2023-02-28T08:54:40.538Z,2.76
2023-02-28T08:55:40.868Z,2.78
2023-02-28T08:56:43.817Z,2.73
2023-02-28T08:57:40.502Z,2.73
2023-02-28T08:58:40.865Z,2.82
2023-02-28T08:59:40.604Z,2.91
2023-02-28T09:00:41.810Z,2.96
2023-02-28T09:01:40.525Z,3.04
2023-02-28T09:02:40.578Z,3.08
2023-02-28T09:03:40.626Z,3.12
2023-02-28T09:04:40.632Z,3.06
2023-02-28T09:05:40.860Z,3.04
2023-02-28T09:06:40.627Z,3.06
2023-02-28T09:07:42.914Z,3.11
2023-02-28T09:08:40.566Z,3.09
2023-02-28T09:09:40.531Z,3.17
2023-02-28T09:10:40.870Z,3.25
2023-02-28T09:11:40.624Z,3.2
2023-02-28T09:12:40.629Z,3.11
2023-02-28T09:13:40.504Z,3.12
2023-02-28T09:14:40.634Z,3.14
2023-02-28T09:15:40.868Z,3.17
2023-02-28T09:16:40.620Z,3.16
2023-02-28T09:17:40.682Z,3.23
2023-02-28T09:18:42.957Z,3.31
2023-02-28T09:19:40.582Z,3.4
2023-02-28T09:20:40.865Z,3.48
2023-02-28T09:21:40.610Z,3.5
2023-02-28T09:22:40.574Z,3.52
2023-02-28T09:23:40.597Z,3.62
2023-02-28T09:26:18.978Z,3.83
2023-02-28T09:27:18.573Z,3.85
2023-02-28T09:28:18.614Z,3.81
2023-02-28T09:29:18.900Z,3.81
2023-02-28T09:30:18.674Z,3.77
2023-02-28T09:31:23.420Z,3.68
2023-02-28T09:32:18.666Z,3.61
2023-02-28T09:33:18.511Z,3.67
2023-02-28T09:34:18.734Z,3.71
2023-02-28T09:35:18.521Z,3.79
2023-02-28T09:36:18.934Z,3.91
2023-02-28T09:37:18.624Z,4.02
2023-02-28T09:38:18.630Z,3.95
2023-02-28T09:39:18.622Z,3.97
2023-02-28T09:40:18.597Z,3.96
2023-02-28T09:41:18.925Z,3.87
2023-02-28T09:42:20.996Z,3.88
2023-02-28T09:43:18.573Z,3.98
2023-02-28T09:44:18.886Z,4.12
2023-02-28T09:45:18.577Z,4.15
2023-02-28T09:46:18.964Z,4.25
2023-02-28T09:47:18.623Z,4.28
2023-02-28T09:48:18.586Z,4.29
2023-02-28T09:49:18.609Z,4.38
2023-02-28T09:50:18.550Z,4.39
2023-02-28T09:51:18.880Z,4.22
2023-02-28T09:52:18.606Z,4.23
2023-02-28T09:53:21.093Z,4.31
2023-02-28T09:54:18.630Z,4.18
2023-02-28T09:55:18.637Z,4
2023-02-28T09:56:18.900Z,3.8
2023-02-28T09:57:18.509Z,3.86
2023-02-28T09:58:18.635Z,3.79
2023-02-28T09:59:18.885Z,3.76
2023-02-28T10:00:19.410Z,3.67
2023-02-28T10:01:18.925Z,3.77
2023-02-28T10:02:18.561Z,3.85
2023-02-28T10:03:18.595Z,3.68
2023-02-28T10:04:21.021Z,3.61
2023-02-28T10:05:18.593Z,3.61
2023-02-28T10:06:18.903Z,3.68
2023-02-28T10:07:18.537Z,3.87
2023-02-28T10:08:18.644Z,3.97
2023-02-28T10:09:18.631Z,3.89
2023-02-28T10:10:19.629Z,3.88
2023-02-28T10:11:19.005Z,3.88
2023-02-28T10:12:18.639Z,4
2023-02-28T10:13:18.630Z,4.22
2023-02-28T10:14:18.891Z,4.22
2023-02-28T10:15:20.939Z,4.14
2023-02-28T10:16:18.917Z,3.99
2023-02-28T10:17:18.662Z,3.87
2023-02-28T10:18:18.597Z,3.84
2023-02-28T10:19:18.637Z,3.84
2023-02-28T10:20:18.527Z,3.81
2023-02-28T10:21:18.896Z,3.8
2023-02-28T10:22:18.616Z,3.73
2023-02-28T10:23:18.631Z,3.66
2023-02-28T10:24:18.646Z,3.6
2023-02-28T10:25:18.649Z,3.56
2023-02-28T10:26:23.356Z,3.5
2023-02-28T10:27:18.623Z,3.45
2023-02-28T10:28:18.548Z,3.36
2023-02-28T10:29:18.890Z,3.3
2023-02-28T10:30:18.645Z,3.32
2023-02-28T10:31:18.962Z,3.35
2023-02-28T10:32:18.689Z,3.35
2023-02-28T10:33:18.680Z,3.35
2023-02-28T10:34:18.617Z,3.39
2023-02-28T10:35:18.690Z,3.39
2023-02-28T10:36:18.914Z,3.33
2023-02-28T10:37:20.941Z,3.27
2023-02-28T10:38:18.637Z,3.31
2023-02-28T10:39:18.612Z,3.37
2023-02-28T10:40:18.836Z,3.62
2023-02-28T10:41:18.965Z,3.74
2023-02-28T10:42:18.607Z,3.8
2023-02-28T10:43:18.617Z,3.91
2023-02-28T10:44:18.939Z,3.94
2023-02-28T10:45:18.545Z,4.05
2023-02-28T10:46:19.120Z,4.18
2023-02-28T10:47:18.525Z,4.24
2023-02-28T10:48:20.868Z,4.23
2023-02-28T10:49:18.554Z,4.3
2023-02-28T10:50:18.552Z,4.4
2023-02-28T10:51:18.922Z,4.55
2023-02-28T10:52:18.533Z,4.66
2023-02-28T10:53:18.663Z,4.73
2023-02-28T10:54:18.651Z,4.81
2023-02-28T10:55:18.540Z,5
2023-02-28T10:56:18.897Z,5.16
2023-02-28T10:57:18.629Z,4.99
2023-02-28T10:58:18.566Z,5.17
2023-02-28T10:59:20.862Z,5.13
2023-02-28T11:00:18.668Z,5.06
2023-02-28T11:01:18.910Z,5.09
2023-02-28T11:02:18.530Z,4.96
2023-02-28T11:03:18.642Z,4.84
2023-02-28T11:04:18.631Z,4.73
2023-02-28T11:05:18.554Z,4.89
2023-02-28T11:06:18.884Z,4.8
2023-02-28T11:07:19.925Z,4.64
2023-02-28T11:08:18.530Z,4.57
2023-02-28T11:09:18.630Z,4.44
2023-02-28T11:10:21.013Z,4.51
2023-02-28T11:11:18.905Z,5.12
2023-02-28T11:12:18.573Z,5.34
2023-02-28T11:13:18.637Z,5.59
2023-02-28T11:14:18.895Z,5.71
2023-02-28T11:15:18.547Z,5.81
2023-02-28T11:16:18.917Z,5.64
2023-02-28T11:17:18.560Z,5.53
2023-02-28T11:18:19.252Z,5.33
2023-02-28T11:19:18.538Z,5.32
2023-02-28T11:20:18.520Z,5.29
2023-02-28T11:21:23.393Z,5.25
2023-02-28T11:22:18.530Z,5.21
2023-02-28T11:23:18.587Z,5.57
2023-02-28T11:24:18.608Z,5.92
2023-02-28T11:25:18.636Z,6.2
2023-02-28T11:26:18.889Z,6.4
2023-02-28T11:27:18.595Z,6.6
2023-02-28T11:28:18.575Z,6.61
2023-02-28T11:29:19.070Z,6.78
2023-02-28T11:30:19.279Z,6.63
2023-02-28T11:31:18.947Z,6.78
2023-02-28T11:32:21.083Z,6.49
2023-02-28T11:33:18.626Z,5.94
2023-02-28T11:34:18.600Z,5.53
2023-02-28T11:35:18.539Z,5.31
2023-02-28T11:36:20.934Z,5.06
2023-02-28T11:37:18.665Z,5.11
2023-02-28T11:38:18.620Z,5.42
2023-02-28T11:39:18.569Z,5.49
2023-02-28T11:40:19.644Z,5.43
2023-02-28T11:41:18.902Z,5.41
2023-02-28T11:42:18.581Z,5.37
2023-02-28T11:43:20.951Z,5.38
2023-02-28T11:44:18.884Z,5.33
2023-02-28T11:45:18.520Z,5.26
2023-02-28T11:46:18.920Z,5.43
2023-02-28T11:47:18.526Z,5.35
2023-02-28T11:48:18.539Z,5.22
2023-02-28T11:49:18.603Z,5.26
2023-02-28T11:50:18.629Z,5.46
2023-02-28T11:51:18.882Z,5.65
2023-02-28T11:52:18.583Z,5.92
2023-02-28T11:53:18.625Z,5.99
2023-02-28T11:54:20.925Z,5.96
2023-02-28T11:55:18.548Z,5.87
2023-02-28T11:56:19.004Z,5.77
2023-02-28T11:57:18.541Z,5.77
2023-02-28T11:58:18.632Z,5.94
2023-02-28T11:59:18.905Z,6.09
2023-02-28T12:00:18.629Z,5.87
2023-02-28T12:01:18.890Z,5.89
2023-02-28T12:02:18.675Z,5.83
2023-02-28T12:03:18.688Z,5.93
2023-02-28T12:04:18.693Z,5.93
2023-02-28T12:05:20.922Z,6.1
2023-02-28T12:06:18.913Z,6.33
2023-02-28T12:07:18.539Z,6.52
2023-02-28T12:08:18.607Z,6.66
2023-02-28T12:09:18.535Z,6.47
2023-02-28T12:10:18.570Z,6.5
2023-02-28T12:11:19.010Z,6.49
2023-02-28T12:12:18.585Z,6.49
2023-02-28T12:13:18.649Z,6.57
2023-02-28T12:14:18.903Z,6.68
2023-02-28T12:15:18.528Z,6.61
2023-02-28T12:16:23.346Z,6.61
2023-02-28T12:17:18.543Z,6.36
2023-02-28T12:18:18.512Z,6.26
2023-02-28T12:19:18.518Z,6.11
2023-02-28T12:20:18.673Z,6.09
2023-02-28T12:21:18.899Z,6
2023-02-28T12:22:18.613Z,5.89
2023-02-28T12:23:18.658Z,5.76
2023-02-28T12:24:18.572Z,5.7
2023-02-28T12:25:18.553Z,5.87
2023-02-28T12:26:19.126Z,5.86
2023-02-28T12:27:21.218Z,5.87
2023-02-28T12:28:18.519Z,5.88
2023-02-28T12:29:18.914Z,6.07
2023-02-28T12:30:18.577Z,6.26
2023-02-28T12:31:18.954Z,6.3
2023-02-28T12:32:18.751Z,6.33
2023-02-28T12:33:18.561Z,6.2
2023-02-28T12:34:18.645Z,6.31
2023-02-28T12:35:18.527Z,6.33
2023-02-28T12:36:18.891Z,6.38
2023-02-28T12:37:18.665Z,6.45
2023-02-28T12:38:20.821Z,6.43
2023-02-28T12:39:18.637Z,6.43
2023-02-28T12:40:19.628Z,6.63
2023-02-28T12:41:18.912Z,6.92
2023-02-28T12:42:18.543Z,7.09
2023-02-28T12:43:18.603Z,7.27
2023-02-28T12:44:18.892Z,7.4
2023-02-28T12:45:18.649Z,7.63
2023-02-28T12:46:19.013Z,7.59
2023-02-28T12:47:18.593Z,7.38
2023-02-28T12:48:18.725Z,7.45
2023-02-28T12:49:21.047Z,7.29
2023-02-28T12:50:18.595Z,7.26
2023-02-28T12:51:18.898Z,7.32
2023-02-28T12:52:18.620Z,7.14
2023-02-28T12:53:18.639Z,7.06
2023-02-28T12:54:18.595Z,6.53
2023-02-28T12:55:18.608Z,6.05
2023-02-28T12:56:18.897Z,6.18
2023-02-28T12:57:18.581Z,6.14
2023-02-28T12:58:18.612Z,6.03
2023-02-28T12:59:18.888Z,6.05
2023-02-28T13:00:20.986Z,6.11
2023-02-28T13:01:18.923Z,6.28
2023-02-28T13:02:18.551Z,6.21
2023-02-28T13:03:18.582Z,6.3
2023-02-28T13:04:18.613Z,6.32
2023-02-28T13:05:18.500Z,6.33
2023-02-28T13:06:18.890Z,6.4
2023-02-28T13:07:18.641Z,6.26
2023-02-28T13:08:18.529Z,6.14
2023-02-28T13:09:18.546Z,6.21
2023-02-28T13:10:18.510Z,6.26